Time;durP1;ratioP1;P1;durP2;ratioP2;P2;SDS_P1;SDS_P2;PMS_P1;PMS_P2;Temp;Humidity;BMP_temperature;BMP_pressure;BME280_temperature;BME280_humidity;BME280_pressure;Samples;Min_cycle;Max_cycle;Signal;HPM_P1;HPM_P2
2023/05/07 00:01:32;;;;;;;35.33;26.13;;;;;;;;;;5077468;28;20461;-81
2023/05/07 00:03:58;;;;;;;38.92;27.98;;;;;;;;;;5079417;28;20545;-81
2023/05/07 00:06:26;;;;;;;39.03;26.85;;;;;;;;;;5073989;28;20044;-81
2023/05/07 00:08:52;;;;;;;40.90;27.05;;;;;;;;;;5076964;28;20052;-82
2023/05/07 00:11:18;;;;;;;35.40;26.95;;;;;;;;;;5068433;28;20316;-82
2023/05/07 00:13:48;;;;;;;38.42;26.98;;;;;;;;;;5069115;28;21942;-82
2023/05/07 00:16:38;;;;;;;37.70;27.98;;;;;;;;;;5074356;28;20537;-82
2023/05/07 00:19:17;;;;;;;37.67;28.98;;;;;;;;;;5093432;27;20035;-82
2023/05/07 00:21:43;;;;;;;43.75;29.52;;;;;;;;;;5073846;28;20483;-82
2023/05/07 00:24:10;;;;;;;38.35;29.75;;;;;;;;;;5091799;27;20039;-82
2023/05/07 00:26:42;;;;;;;42.67;30.88;;;;;;;;;;5054135;28;20512;-82
2023/05/07 00:29:08;;;;;;;44.00;30.38;;;;;;;;;;5059403;28;20053;-82
2023/05/07 00:31:39;;;;;;;41.30;30.00;;;;;;;;;;5075484;28;20165;-82
2023/05/07 00:34:09;;;;;;;37.03;29.23;;;;;;;;;;5052369;28;20046;-82
2023/05/07 00:36:38;;;;;;;38.42;28.73;;;;;;;;;;5062167;28;20563;-82
2023/05/07 00:39:06;;;;;;;37.30;26.48;;;;;;;;;;5054299;28;20036;-82
2023/05/07 00:41:36;;;;;;;38.97;27.45;;;;;;;;;;5067843;28;20039;-82
2023/05/07 00:44:18;;;;;;;37.33;28.42;;;;;;;;;;5077095;28;20122;-82
2023/05/07 00:46:49;;;;;;;38.27;28.53;;;;;;;;;;5076863;28;20043;-82
2023/05/07 00:49:16;;;;;;;38.88;29.00;;;;;;;;;;5072270;28;20055;-82
2023/05/07 00:51:50;;;;;;;35.25;28.25;;;;;;;;;;5089899;27;20055;-82
2023/05/07 00:54:22;;;;;;;39.05;27.23;;;;;;;;;;5068352;27;20539;-82
2023/05/07 00:56:49;;;;;;;35.22;27.25;;;;;;;;;;5088020;27;20049;-82
2023/05/07 00:59:21;;;;;;;40.88;28.80;;;;;;;;;;5072580;27;20088;-82
2023/05/07 01:01:47;;;;;;;36.08;27.52;;;;;;;;;;5082498;27;20055;-81
2023/05/07 01:04:14;;;;;;;38.55;28.27;;;;;;;;;;5081385;27;20126;-82
2023/05/07 01:06:41;;;;;;;37.35;26.67;;;;;;;;;;5070067;27;20047;-82
2023/05/07 01:09:09;;;;;;;37.45;28.35;;;;;;;;;;5079190;27;20251;-81
2023/05/07 01:11:51;;;;;;;37.05;28.65;;;;;;;;;;5083635;27;20074;-82
2023/05/07 01:14:20;;;;;;;33.33;26.52;;;;;;;;;;5074169;27;20051;-82
2023/05/07 01:16:50;;;;;;;35.60;26.67;;;;;;;;;;5094716;27;20043;-82
2023/05/07 01:19:20;;;;;;;36.42;28.08;;;;;;;;;;5078448;27;20055;-82
2023/05/07 01:21:48;;;;;;;38.05;28.25;;;;;;;;;;5079020;27;20066;-82
2023/05/07 01:24:19;;;;;;;38.35;28.85;;;;;;;;;;5095209;27;20056;-82
2023/05/07 01:26:45;;;;;;;37.78;27.77;;;;;;;;;;5081765;27;20051;-82
2023/05/07 01:29:17;;;;;;;38.88;28.75;;;;;;;;;;5079966;27;20184;-82
2023/05/07 01:31:43;;;;;;;39.08;28.58;;;;;;;;;;5081797;27;20693;-82
2023/05/07 01:34:13;;;;;;;33.85;27.02;;;;;;;;;;5095015;27;20050;-82
2023/05/07 01:36:40;;;;;;;36.05;27.48;;;;;;;;;;5079482;27;20044;-82
2023/05/07 01:39:10;;;;;;;37.63;28.25;;;;;;;;;;5074136;27;21021;-82
2023/05/07 01:41:39;;;;;;;37.25;27.95;;;;;;;;;;5081948;27;20047;-82
2023/05/07 01:44:09;;;;;;;39.88;28.50;;;;;;;;;;5078971;27;20571;-83
2023/05/07 01:46:53;;;;;;;42.40;32.17;;;;;;;;;;5079615;27;20053;-83
2023/05/07 01:49:20;;;;;;;39.95;31.42;;;;;;;;;;5080269;27;20383;-83
2023/05/07 01:51:47;;;;;;;35.97;29.48;;;;;;;;;;5076044;27;20123;-82
2023/05/07 01:54:18;;;;;;;43.42;31.23;;;;;;;;;;5080305;27;20047;-82
2023/05/07 01:56:50;;;;;;;41.33;30.90;;;;;;;;;;5080730;27;20039;-82
2023/05/07 01:59:18;;;;;;;47.28;31.92;;;;;;;;;;5081373;27;20137;-82
2023/05/07 02:01:47;;;;;;;39.50;30.30;;;;;;;;;;5094434;27;20696;-82
2023/05/07 02:04:13;;;;;;;35.22;27.40;;;;;;;;;;5096059;27;20065;-82
2023/05/07 02:06:48;;;;;;;34.67;26.65;;;;;;;;;;5074033;27;20161;-82
2023/05/07 02:09:26;;;;;;;39.60;28.73;;;;;;;;;;5086258;27;20051;-81
2023/05/07 02:11:55;;;;;;;39.92;28.05;;;;;;;;;;5055182;27;21712;-82
2023/05/07 02:14:35;;;;;;;45.17;30.35;;;;;;;;;;5068514;27;20058;-83
2023/05/07 02:17:08;;;;;;;44.05;29.63;;;;;;;;;;5065215;27;20054;-82
2023/05/07 02:19:37;;;;;;;44.00;31.55;;;;;;;;;;5064924;27;20044;-82
2023/05/07 02:25:14;;;;;;;43.47;31.98;;;;;;;;;;5084301;27;20083;-82
2023/05/07 02:27:49;;;;;;;44.60;31.85;;;;;;;;;;5069920;27;20079;-82
2023/05/07 02:30:35;;;;;;;44.92;31.73;;;;;;;;;;5070352;27;20560;-83
2023/05/07 02:35:55;;;;;;;52.85;35.55;;;;;;;;;;5070217;27;20182;-82
2023/05/07 02:38:23;;;;;;;57.38;38.83;;;;;;;;;;5067140;27;20047;-83
2023/05/07 02:41:15;;;;;;;63.28;41.92;;;;;;;;;;5057309;27;20793;-83
2023/05/07 02:44:17;;;;;;;;;;;;;;;;;;;;;
2023/05/07 02:47:08;;;;;;;55.08;38.42;;;;;;;;;;5047230;28;23902;-82
2023/05/07 02:49:43;;;;;;;57.88;37.70;;;;;;;;;;5003656;28;20046;-83
2023/05/07 02:52:09;;;;;;;56.13;36.72;;;;;;;;;;5005800;28;20060;-82
2023/05/07 02:54:35;;;;;;;51.42;37.10;;;;;;;;;;4993181;28;20123;-83
2023/05/07 02:57:04;;;;;;;55.30;39.03;;;;;;;;;;5004462;28;20045;-83
2023/05/07 02:59:30;;;;;;;60.92;42.08;;;;;;;;;;4990926;28;20049;-83
2023/05/07 03:01:56;;;;;;;64.38;43.65;;;;;;;;;;4993798;28;20086;-82
2023/05/07 03:04:30;;;;;;;58.63;43.58;;;;;;;;;;4989591;28;20081;-82
2023/05/07 03:06:56;;;;;;;49.78;37.55;;;;;;;;;;5012096;28;20093;-82
2023/05/07 03:09:27;;;;;;;52.85;35.58;;;;;;;;;;4992903;28;20204;-82
2023/05/07 03:11:57;;;;;;;46.25;33.40;;;;;;;;;;5016514;28;20091;-82
2023/05/07 03:14:23;;;;;;;42.97;32.72;;;;;;;;;;5005804;28;20052;-82
2023/05/07 03:16:50;;;;;;;46.03;31.58;;;;;;;;;;5026485;28;21622;-82
2023/05/07 03:19:16;;;;;;;41.53;30.80;;;;;;;;;;5015704;28;20044;-82
2023/05/07 03:21:42;;;;;;;43.28;30.80;;;;;;;;;;5054025;27;20056;-81
2023/05/07 03:24:08;;;;;;;43.85;31.17;;;;;;;;;;5056642;28;20040;-83
2023/05/07 03:26:34;;;;;;;44.67;32.90;;;;;;;;;;5066416;27;20435;-83
2023/05/07 03:29:06;;;;;;;44.88;33.13;;;;;;;;;;5065661;27;20055;-82
2023/05/07 03:31:32;;;;;;;45.53;35.28;;;;;;;;;;5067035;27;20470;-82
2023/05/07 03:33:59;;;;;;;50.72;35.47;;;;;;;;;;5059307;27;20047;-82
2023/05/07 03:36:27;;;;;;;44.67;36.22;;;;;;;;;;5078873;27;20078;-82
2023/05/07 03:38:53;;;;;;;51.33;35.90;;;;;;;;;;5054823;27;20051;-81
2023/05/07 03:41:20;;;;;;;45.58;34.53;;;;;;;;;;5084234;27;20035;-82
2023/05/07 03:43:52;;;;;;;46.67;33.85;;;;;;;;;;5066344;27;20036;-82
2023/05/07 03:46:18;;;;;;;47.95;33.55;;;;;;;;;;5074498;28;20070;-81
2023/05/07 03:48:44;;;;;;;49.95;33.20;;;;;;;;;;5081441;27;20050;-82
2023/05/07 03:51:11;;;;;;;48.85;35.28;;;;;;;;;;5050340;27;20039;-82
2023/05/07 03:53:37;;;;;;;47.88;35.70;;;;;;;;;;5049430;28;20783;-82
2023/05/07 03:56:03;;;;;;;51.42;35.50;;;;;;;;;;5070770;28;20050;-82
2023/05/07 03:58:30;;;;;;;46.63;32.33;;;;;;;;;;5066916;28;20942;-82
2023/05/07 04:00:56;;;;;;;44.28;31.98;;;;;;;;;;5081117;27;20113;-82
2023/05/07 04:03:22;;;;;;;42.72;32.78;;;;;;;;;;5069947;27;20039;-82
2023/05/07 04:05:48;;;;;;;45.97;32.65;;;;;;;;;;5088861;27;20032;-82
2023/05/07 04:08:14;;;;;;;40.83;32.40;;;;;;;;;;5068798;28;20432;-81
2023/05/07 04:10:40;;;;;;;40.72;30.75;;;;;;;;;;5064057;27;20126;-81
2023/05/07 04:13:06;;;;;;;41.55;30.63;;;;;;;;;;5086127;27;20044;-81
2023/05/07 04:15:32;;;;;;;39.97;30.00;;;;;;;;;;5073350;27;20039;-82
2023/05/07 04:17:59;;;;;;;39.05;30.38;;;;;;;;;;5074940;28;20044;-82
2023/05/07 04:20:25;;;;;;;41.63;30.77;;;;;;;;;;5088102;27;21612;-83
2023/05/07 04:22:51;;;;;;;38.08;30.35;;;;;;;;;;5067535;27;20053;-82
2023/05/07 04:25:18;;;;;;;37.10;29.65;;;;;;;;;;5085547;27;20455;-83
2023/05/07 04:27:44;;;;;;;36.28;28.85;;;;;;;;;;5084058;27;20421;-83
2023/05/07 04:30:11;;;;;;;39.50;29.13;;;;;;;;;;5091633;27;20048;-82
2023/05/07 04:32:37;;;;;;;38.38;29.90;;;;;;;;;;5068631;27;20047;-82
2023/05/07 04:35:03;;;;;;;38.75;30.73;;;;;;;;;;5072742;27;20596;-82
2023/05/07 04:37:29;;;;;;;39.22;29.83;;;;;;;;;;5089578;27;20056;-82
2023/05/07 04:39:56;;;;;;;34.92;28.08;;;;;;;;;;5088180;27;20523;-82
2023/05/07 04:42:22;;;;;;;36.30;28.95;;;;;;;;;;5089543;27;20175;-82
2023/05/07 04:44:52;;;;;;;34.92;28.60;;;;;;;;;;5087446;27;20458;-82
2023/05/07 04:47:19;;;;;;;37.83;28.60;;;;;;;;;;5085341;27;20043;-82
2023/05/07 04:49:45;;;;;;;35.45;29.00;;;;;;;;;;5088102;27;20040;-82
2023/05/07 04:52:11;;;;;;;36.38;30.10;;;;;;;;;;5062917;27;20104;-83
2023/05/07 04:54:40;;;;;;;36.60;28.50;;;;;;;;;;5064128;27;20062;-83
2023/05/07 04:57:06;;;;;;;37.95;29.13;;;;;;;;;;5064254;27;20157;-82
2023/05/07 04:59:34;;;;;;;35.95;28.70;;;;;;;;;;5088214;27;20031;-82
2023/05/07 05:02:01;;;;;;;36.00;28.42;;;;;;;;;;5073496;27;20036;-83
2023/05/07 05:04:27;;;;;;;38.00;28.75;;;;;;;;;;5063892;27;20711;-82
2023/05/07 05:07:32;;;;;;;36.30;29.13;;;;;;;;;;5066083;27;20121;-83
2023/05/07 05:10:45;;;;;;;39.30;31.15;;;;;;;;;;5081450;27;20066;-83
2023/05/07 05:13:12;;;;;;;49.15;36.60;;;;;;;;;;5066866;27;20069;-83
2023/05/07 05:15:39;;;;;;;51.35;36.85;;;;;;;;;;5043157;27;20054;-83
2023/05/07 05:18:15;;;;;;;53.75;35.78;;;;;;;;;;5065063;27;20048;-83
2023/05/07 05:20:42;;;;;;;51.03;35.05;;;;;;;;;;5066979;27;20456;-82
2023/05/07 05:23:13;;;;;;;46.28;31.67;;;;;;;;;;5034142;27;20976;-82
2023/05/07 05:25:40;;;;;;;42.15;31.83;;;;;;;;;;5061137;27;20056;-83
2023/05/07 05:28:06;;;;;;;39.88;27.80;;;;;;;;;;5080367;27;20047;-83
2023/05/07 05:30:32;;;;;;;36.03;27.42;;;;;;;;;;5070177;28;21825;-82
2023/05/07 05:32:58;;;;;;;41.58;28.23;;;;;;;;;;5055258;27;20570;-82
2023/05/07 05:35:24;;;;;;;39.67;28.73;;;;;;;;;;5065962;27;20129;-83
2023/05/07 05:37:50;;;;;;;34.17;26.70;;;;;;;;;;5064268;27;20135;-83
2023/05/07 05:40:16;;;;;;;31.85;25.90;;;;;;;;;;5050235;27;20071;-83
2023/05/07 05:42:43;;;;;;;33.60;26.55;;;;;;;;;;5088031;27;20043;-81
2023/05/07 05:45:09;;;;;;;41.40;27.90;;;;;;;;;;5098116;27;21307;-82
2023/05/07 05:47:35;;;;;;;41.50;29.55;;;;;;;;;;5077015;27;20039;-82
2023/05/07 05:50:01;;;;;;;36.50;28.30;;;;;;;;;;5109221;27;20057;-83
2023/05/07 05:52:27;;;;;;;40.10;28.60;;;;;;;;;;5114013;27;20036;-79
2023/05/07 05:54:54;;;;;;;37.90;27.83;;;;;;;;;;5115110;27;20152;-80
2023/05/07 05:57:20;;;;;;;33.70;25.95;;;;;;;;;;5112768;27;20827;-82
2023/05/07 05:59:47;;;;;;;38.88;26.35;;;;;;;;;;5106910;27;20418;-81
2023/05/07 06:02:13;;;;;;;35.42;26.75;;;;;;;;;;5078584;27;20382;-81
2023/05/07 06:04:39;;;;;;;34.83;25.60;;;;;;;;;;5073346;27;20044;-80
2023/05/07 06:07:05;;;;;;;38.15;27.45;;;;;;;;;;5062510;28;20039;-81
2023/05/07 06:09:31;;;;;;;38.58;27.20;;;;;;;;;;5075589;27;20267;-79
2023/05/07 06:11:57;;;;;;;41.00;27.63;;;;;;;;;;5090534;27;20056;-82
2023/05/07 06:14:23;;;;;;;41.35;29.70;;;;;;;;;;5088884;27;20043;-81
2023/05/07 06:16:49;;;;;;;38.78;29.60;;;;;;;;;;5084351;27;20055;-82
2023/05/07 06:19:17;;;;;;;43.47;30.35;;;;;;;;;;5101559;27;20568;-82
2023/05/07 06:21:44;;;;;;;47.40;32.55;;;;;;;;;;5067684;27;20072;-82
2023/05/07 06:24:10;;;;;;;47.65;30.90;;;;;;;;;;5059607;27;20072;-83
2023/05/07 06:26:36;;;;;;;38.88;29.13;;;;;;;;;;5071339;27;20062;-82
2023/05/07 06:29:03;;;;;;;39.85;28.40;;;;;;;;;;5086290;27;20617;-82
2023/05/07 06:31:33;;;;;;;37.50;28.35;;;;;;;;;;5083970;27;20053;-82
2023/05/07 06:33:59;;;;;;;38.80;26.65;;;;;;;;;;5083593;27;20044;-81
2023/05/07 06:36:26;;;;;;;40.60;28.92;;;;;;;;;;5084775;27;20896;-82
2023/05/07 06:38:52;;;;;;;39.45;27.90;;;;;;;;;;5061671;27;20042;-82
2023/05/07 06:41:21;;;;;;;39.83;27.95;;;;;;;;;;5068720;27;20067;-81
2023/05/07 06:43:47;;;;;;;42.10;29.80;;;;;;;;;;5087638;27;20108;-81
2023/05/07 06:46:13;;;;;;;42.17;28.65;;;;;;;;;;5086202;27;20623;-82
2023/05/07 06:48:40;;;;;;;42.75;30.30;;;;;;;;;;5078829;27;21536;-82
2023/05/07 06:51:06;;;;;;;41.97;29.92;;;;;;;;;;5083954;27;20048;-81
2023/05/07 06:53:32;;;;;;;37.72;27.98;;;;;;;;;;5071317;27;20051;-81
2023/05/07 06:55:58;;;;;;;45.45;31.52;;;;;;;;;;5060852;27;20526;-80
2023/05/07 06:58:24;;;;;;;44.13;30.38;;;;;;;;;;5084748;27;20048;-80
2023/05/07 07:00:53;;;;;;;38.17;28.02;;;;;;;;;;5071786;27;20058;-82
2023/05/07 07:03:20;;;;;;;40.25;29.08;;;;;;;;;;5070571;27;20510;-83
2023/05/07 07:05:52;;;;;;;38.08;27.55;;;;;;;;;;5066285;27;20125;-79
2023/05/07 07:08:18;;;;;;;36.33;26.27;;;;;;;;;;5084925;27;20060;-81
2023/05/07 07:10:44;;;;;;;34.42;26.55;;;;;;;;;;5062663;28;20491;-81
2023/05/07 07:13:10;;;;;;;33.28;24.58;;;;;;;;;;5079437;27;20036;-81
2023/05/07 07:15:36;;;;;;;36.88;25.60;;;;;;;;;;5089431;27;20043;-79
2023/05/07 07:18:02;;;;;;;37.92;27.33;;;;;;;;;;5081552;27;20055;-80
2023/05/07 07:20:28;;;;;;;36.78;25.27;;;;;;;;;;5085420;27;20040;-80
2023/05/07 07:22:54;;;;;;;35.15;26.40;;;;;;;;;;5085508;27;20537;-81
2023/05/07 07:25:20;;;;;;;34.83;25.63;;;;;;;;;;5071584;28;20035;-82
2023/05/07 07:27:47;;;;;;;36.08;27.52;;;;;;;;;;5087710;27;20052;-81
2023/05/07 07:30:13;;;;;;;31.60;24.60;;;;;;;;;;5090909;27;20501;-81
2023/05/07 07:32:39;;;;;;;36.90;25.85;;;;;;;;;;5086723;27;20076;-81
2023/05/07 07:35:05;;;;;;;35.42;25.90;;;;;;;;;;5062999;27;20414;-82
2023/05/07 07:37:32;;;;;;;35.67;25.23;;;;;;;;;;5089171;27;20043;-82
2023/05/07 07:39:58;;;;;;;38.00;28.25;;;;;;;;;;5068552;27;20039;-82
2023/05/07 07:42:24;;;;;;;38.83;28.80;;;;;;;;;;5061776;27;20043;-81
2023/05/07 07:44:50;;;;;;;39.35;28.92;;;;;;;;;;5085308;27;20124;-81
2023/05/07 07:47:16;;;;;;;40.95;29.83;;;;;;;;;;5087704;27;20048;-82
2023/05/07 07:49:42;;;;;;;39.55;29.42;;;;;;;;;;5088093;27;20048;-82
2023/05/07 07:52:08;;;;;;;39.72;30.05;;;;;;;;;;5085372;27;20050;-81
2023/05/07 07:54:35;;;;;;;35.15;26.65;;;;;;;;;;5049456;27;20144;-82
2023/05/07 07:57:01;;;;;;;35.28;25.15;;;;;;;;;;5064536;28;20763;-82
2023/05/07 07:59:27;;;;;;;39.65;28.42;;;;;;;;;;5071343;28;20200;-81
2023/05/07 08:01:55;;;;;;;39.85;29.25;;;;;;;;;;5070922;28;20043;-81
2023/05/07 08:04:21;;;;;;;41.17;30.88;;;;;;;;;;5085289;27;20391;-80
2023/05/07 08:06:48;;;;;;;43.08;29.10;;;;;;;;;;5085340;27;20095;-81
2023/05/07 08:09:14;;;;;;;40.50;29.92;;;;;;;;;;5085619;27;20058;-81
2023/05/07 08:11:40;;;;;;;39.17;30.13;;;;;;;;;;5088082;27;20866;-82
2023/05/07 08:14:06;;;;;;;41.85;31.58;;;;;;;;;;5062621;28;20044;-81
2023/05/07 08:16:32;;;;;;;40.95;32.83;;;;;;;;;;5089810;28;20089;-82
2023/05/07 08:18:58;;;;;;;40.38;32.25;;;;;;;;;;5085322;27;20416;-81
2023/05/07 08:21:25;;;;;;;43.33;33.00;;;;;;;;;;5082399;27;20872;-81
2023/05/07 08:23:52;;;;;;;42.38;32.70;;;;;;;;;;5059296;28;20119;-80
2023/05/07 08:26:18;;;;;;;43.03;30.38;;;;;;;;;;5080221;27;20055;-81
2023/05/07 08:28:44;;;;;;;42.05;32.00;;;;;;;;;;5080460;27;20195;-81
2023/05/07 08:31:10;;;;;;;36.47;30.27;;;;;;;;;;5081483;28;20048;-80
2023/05/07 08:33:38;;;;;;;41.40;31.40;;;;;;;;;;5069573;28;20036;-82
2023/05/07 08:36:04;;;;;;;39.33;30.80;;;;;;;;;;5075679;28;20123;-83
2023/05/07 08:38:31;;;;;;;40.33;31.38;;;;;;;;;;5065129;28;20494;-81
2023/05/07 08:41:00;;;;;;;39.75;31.45;;;;;;;;;;5083833;27;20032;-81
2023/05/07 08:43:30;;;;;;;38.63;30.48;;;;;;;;;;5091216;28;20043;-81
2023/05/07 08:45:57;;;;;;;34.88;28.30;;;;;;;;;;5088306;27;20039;-82
2023/05/07 08:48:26;;;;;;;38.58;31.08;;;;;;;;;;5075981;27;20087;-81
2023/05/07 08:50:52;;;;;;;37.75;29.67;;;;;;;;;;5085910;28;20039;-81
2023/05/07 08:53:18;;;;;;;34.53;29.15;;;;;;;;;;5085959;28;20483;-81
2023/05/07 08:55:47;;;;;;;37.08;30.15;;;;;;;;;;5077284;27;20491;-82
2023/05/07 08:58:14;;;;;;;36.30;29.55;;;;;;;;;;5070936;28;20048;-82
2023/05/07 09:00:40;;;;;;;35.50;28.90;;;;;;;;;;5065380;28;20078;-81
2023/05/07 09:03:06;;;;;;;33.83;28.30;;;;;;;;;;5087860;27;20050;-81
2023/05/07 09:05:32;;;;;;;30.40;27.10;;;;;;;;;;5065161;28;20070;-81
2023/05/07 09:08:05;;;;;;;28.58;25.45;;;;;;;;;;5063867;28;20051;-82
2023/05/07 09:10:33;;;;;;;31.33;27.92;;;;;;;;;;5066198;28;21647;-78
2023/05/07 09:13:00;;;;;;;33.25;29.10;;;;;;;;;;5072727;27;20047;-81
2023/05/07 09:15:29;;;;;;;34.38;28.98;;;;;;;;;;5070747;27;20058;-81
2023/05/07 09:18:09;;;;;;;33.75;28.40;;;;;;;;;;5067478;27;20069;-82
2023/05/07 09:20:47;;;;;;;36.13;32.33;;;;;;;;;;5064985;27;20609;-81
2023/05/07 09:23:16;;;;;;;35.80;31.17;;;;;;;;;;5092925;27;20035;-83
2023/05/07 09:25:42;;;;;;;36.88;32.97;;;;;;;;;;5072175;27;20590;-83
2023/05/07 09:28:10;;;;;;;34.80;31.30;;;;;;;;;;5069306;27;20051;-82
2023/05/07 09:30:37;;;;;;;37.55;33.55;;;;;;;;;;5088433;27;20648;-83
2023/05/07 09:33:04;;;;;;;36.38;32.58;;;;;;;;;;5070003;27;20139;-84
2023/05/07 09:35:30;;;;;;;36.67;32.75;;;;;;;;;;5084992;27;20052;-82
2023/05/07 09:38:28;;;;;;;39.95;35.35;;;;;;;;;;5084116;27;20047;-83
2023/05/07 09:41:06;;;;;;;33.03;29.52;;;;;;;;;;5085800;27;20044;-83
2023/05/07 09:43:36;;;;;;;31.80;28.38;;;;;;;;;;5090661;27;20054;-82
2023/05/07 09:46:06;;;;;;;35.95;32.15;;;;;;;;;;5092741;27;20637;-82
2023/05/07 09:48:40;;;;;;;32.15;28.88;;;;;;;;;;5074083;27;20031;-82
2023/05/07 09:51:19;;;;;;;33.58;29.95;;;;;;;;;;5067058;27;20035;-83
2023/05/07 09:53:46;;;;;;;37.42;33.45;;;;;;;;;;5077726;27;20043;-83
2023/05/07 09:56:13;;;;;;;33.95;30.35;;;;;;;;;;5077067;27;20101;-84
2023/05/07 09:58:45;;;;;;;29.58;26.48;;;;;;;;;;5069659;27;20039;-84
2023/05/07 10:01:14;;;;;;;34.03;29.85;;;;;;;;;;5070664;27;20639;-83
2023/05/07 10:03:44;;;;;;;35.70;31.88;;;;;;;;;;5075397;27;20043;-83
2023/05/07 10:06:13;;;;;;;31.08;27.83;;;;;;;;;;5069893;27;20135;-83
2023/05/07 10:08:41;;;;;;;26.90;23.17;;;;;;;;;;5068402;27;20074;-84
2023/05/07 10:11:10;;;;;;;30.23;26.33;;;;;;;;;;5074654;27;20050;-82
2023/05/07 10:13:37;;;;;;;27.40;24.45;;;;;;;;;;5069704;27;20071;-82
2023/05/07 10:16:05;;;;;;;27.13;24.33;;;;;;;;;;5071848;27;20063;-83
2023/05/07 10:18:37;;;;;;;30.02;26.95;;;;;;;;;;5061544;28;20111;-82
2023/05/07 10:21:13;;;;;;;30.38;27.17;;;;;;;;;;5083744;27;20066;-84
2023/05/07 10:23:40;;;;;;;32.13;27.85;;;;;;;;;;5070302;27;20043;-82
2023/05/07 10:26:08;;;;;;;34.30;28.70;;;;;;;;;;5062122;27;20043;-83
2023/05/07 10:28:40;;;;;;;33.10;29.63;;;;;;;;;;5085258;27;20052;-82
2023/05/07 10:31:30;;;;;;;35.42;31.90;;;;;;;;;;5073710;27;20129;-81
2023/05/07 10:33:57;;;;;;;35.58;31.88;;;;;;;;;;5070522;27;20035;-81
2023/05/07 10:36:24;;;;;;;34.67;31.08;;;;;;;;;;5063842;27;20062;-83
2023/05/07 10:38:50;;;;;;;30.67;27.58;;;;;;;;;;5068508;27;20035;-82
2023/05/07 10:41:18;;;;;;;31.08;27.67;;;;;;;;;;5071503;27;21599;-81
2023/05/07 10:43:46;;;;;;;29.77;26.73;;;;;;;;;;5076730;27;20040;-81
2023/05/07 10:46:16;;;;;;;30.55;27.25;;;;;;;;;;5074019;27;20038;-81
2023/05/07 10:49:05;;;;;;;33.20;29.70;;;;;;;;;;5065903;27;20200;-81
2023/05/07 10:51:38;;;;;;;40.30;35.95;;;;;;;;;;5076520;27;20047;-82
2023/05/07 10:54:11;;;;;;;47.75;40.42;;;;;;;;;;5077047;27;20093;-82
2023/05/07 10:56:42;;;;;;;29.13;26.15;;;;;;;;;;5085792;27;20054;-81
2023/05/07 10:59:23;;;;;;;25.67;22.58;;;;;;;;;;5085561;27;20062;-81
2023/05/07 11:01:57;;;;;;;25.77;23.10;;;;;;;;;;5089582;27;20040;-81
2023/05/07 11:04:27;;;;;;;;;;;;;;;;;;5085733;27;20039;-82
2023/05/07 11:07:08;;;;;;;28.25;24.80;;;;;;;;;;5087739;27;20374;-80
2023/05/07 11:09:53;;;;;;;27.20;24.48;;;;;;;;;;5069716;27;20040;-83
2023/05/07 11:15:47;;;;;;;27.58;24.58;;;;;;;;;;5040968;28;20126;-82
2023/05/07 11:18:25;;;;;;;32.50;29.25;;;;;;;;;;5025106;28;20146;-83
2023/05/07 11:20:55;;;;;;;34.53;30.52;;;;;;;;;;5076630;27;20050;-83
2023/05/07 11:23:35;;;;;;;40.30;36.08;;;;;;;;;;5064266;27;20411;-80
2023/05/07 11:26:05;;;;;;;36.75;32.78;;;;;;;;;;5079097;27;20131;-81
2023/05/07 11:28:36;;;;;;;28.80;26.00;;;;;;;;;;5083369;27;20055;-80
2023/05/07 11:31:03;;;;;;;29.67;26.15;;;;;;;;;;5074817;27;20048;-80
2023/05/07 11:33:29;;;;;;;26.77;24.05;;;;;;;;;;5066975;27;20126;-81
2023/05/07 11:35:56;;;;;;;28.02;25.02;;;;;;;;;;5080682;27;20395;-80
2023/05/07 11:38:22;;;;;;;22.95;20.58;;;;;;;;;;5088275;27;20532;-80
2023/05/07 11:41:05;;;;;;;21.35;19.15;;;;;;;;;;5068961;27;20040;-80
2023/05/07 11:43:32;;;;;;;22.90;20.52;;;;;;;;;;5085814;27;20047;-81
2023/05/07 11:46:14;;;;;;;26.80;23.95;;;;;;;;;;5087859;27;20043;-82
2023/05/07 11:48:41;;;;;;;27.85;25.15;;;;;;;;;;5084891;27;20833;-81
2023/05/07 11:51:13;;;;;;;30.00;27.08;;;;;;;;;;5070788;28;20032;-81
2023/05/07 11:53:41;;;;;;;34.33;31.13;;;;;;;;;;5082986;28;20044;-82
2023/05/07 11:56:17;;;;;;;32.90;29.80;;;;;;;;;;5088995;28;20534;-83
2023/05/07 11:58:44;;;;;;;35.17;31.95;;;;;;;;;;5097824;27;20843;-79
2023/05/07 12:01:12;;;;;;;36.63;33.03;;;;;;;;;;5086263;27;20036;-78
2023/05/07 12:03:42;;;;;;;35.53;32.22;;;;;;;;;;5085452;27;20052;-78
2023/05/07 12:06:09;;;;;;;31.40;28.48;;;;;;;;;;5084454;27;20051;-78
2023/05/07 12:08:39;;;;;;;24.95;22.55;;;;;;;;;;5089022;27;20040;-77
2023/05/07 12:11:08;;;;;;;18.27;16.60;;;;;;;;;;5081951;28;20784;-78
2023/05/07 12:13:34;;;;;;;19.13;17.30;;;;;;;;;;5087045;27;20039;-78
2023/05/07 12:16:03;;;;;;;19.27;17.50;;;;;;;;;;5092392;27;20047;-79
2023/05/07 12:18:29;;;;;;;19.25;16.45;;;;;;;;;;5091414;27;20213;-79
2023/05/07 12:20:56;;;;;;;20.13;18.02;;;;;;;;;;5074923;28;20138;-79
2023/05/07 12:23:22;;;;;;;20.00;18.17;;;;;;;;;;5073239;28;20039;-81
2023/05/07 12:25:49;;;;;;;21.20;19.20;;;;;;;;;;5084780;27;20066;-79
2023/05/07 12:28:16;;;;;;;21.38;19.38;;;;;;;;;;5085272;27;20056;-79
2023/05/07 12:30:43;;;;;;;22.48;20.48;;;;;;;;;;5084828;27;20067;-79
2023/05/07 12:33:09;;;;;;;24.80;22.52;;;;;;;;;;5088516;27;20042;-80
2023/05/07 12:35:40;;;;;;;25.98;23.67;;;;;;;;;;5085440;27;20131;-79
2023/05/07 12:38:13;;;;;;;27.92;25.33;;;;;;;;;;5067641;28;20075;-79
2023/05/07 12:40:41;;;;;;;29.50;26.67;;;;;;;;;;5087187;27;20067;-80
2023/05/07 12:43:10;;;;;;;28.55;26.05;;;;;;;;;;5086591;27;20475;-79
2023/05/07 12:45:39;;;;;;;26.63;24.33;;;;;;;;;;5066390;27;20071;-81
2023/05/07 12:48:05;;;;;;;29.02;26.38;;;;;;;;;;5086351;28;20052;-81
2023/05/07 12:50:32;;;;;;;29.70;27.13;;;;;;;;;;5088205;27;20074;-81
2023/05/07 12:52:59;;;;;;;30.02;27.50;;;;;;;;;;5088371;27;20043;-80
2023/05/07 12:55:25;;;;;;;31.38;28.67;;;;;;;;;;5087195;27;20506;-81
2023/05/07 12:57:52;;;;;;;29.42;26.92;;;;;;;;;;5088063;27;20048;-80
2023/05/07 13:00:18;;;;;;;27.42;25.13;;;;;;;;;;5069438;27;20091;-80
2023/05/07 13:02:44;;;;;;;26.70;24.50;;;;;;;;;;5088039;27;20061;-81
2023/05/07 13:05:10;;;;;;;26.38;24.15;;;;;;;;;;5068656;27;20040;-81
2023/05/07 13:07:38;;;;;;;24.48;22.25;;;;;;;;;;5086465;27;20039;-81
2023/05/07 13:10:04;;;;;;;22.90;21.00;;;;;;;;;;5085414;27;21391;-81
2023/05/07 13:12:30;;;;;;;25.38;23.20;;;;;;;;;;5087880;27;20039;-81
2023/05/07 13:14:56;;;;;;;21.83;20.00;;;;;;;;;;5083375;27;20050;-81
2023/05/07 13:17:23;;;;;;;21.33;19.63;;;;;;;;;;5087368;27;20048;-81
2023/05/07 13:19:49;;;;;;;21.30;19.50;;;;;;;;;;5074030;27;20269;-81
2023/05/07 13:22:15;;;;;;;19.85;18.25;;;;;;;;;;5068065;27;20051;-82
2023/05/07 13:24:43;;;;;;;20.83;19.17;;;;;;;;;;5087400;27;20130;-81
2023/05/07 13:27:09;;;;;;;21.00;19.30;;;;;;;;;;5088858;27;20054;-82
2023/05/07 13:29:35;;;;;;;21.38;19.55;;;;;;;;;;5085671;27;21025;-81
2023/05/07 13:32:01;;;;;;;21.63;19.92;;;;;;;;;;5087429;27;20786;-82
2023/05/07 13:34:28;;;;;;;21.98;20.00;;;;;;;;;;5073843;27;20046;-81
2023/05/07 13:36:55;;;;;;;21.63;19.52;;;;;;;;;;5089154;27;20221;-81
2023/05/07 13:39:21;;;;;;;21.17;19.42;;;;;;;;;;5072721;27;20040;-80
2023/05/07 13:41:47;;;;;;;20.80;18.77;;;;;;;;;;5077018;27;20572;-80
2023/05/07 13:44:13;;;;;;;19.85;18.02;;;;;;;;;;5096377;27;20044;-82
2023/05/07 13:46:39;;;;;;;20.25;18.42;;;;;;;;;;5097587;27;20207;-80
2023/05/07 13:49:05;;;;;;;18.88;17.38;;;;;;;;;;5091993;27;20045;-78
2023/05/07 13:51:31;;;;;;;17.08;15.68;;;;;;;;;;5070036;27;20051;-78
2023/05/07 13:53:58;;;;;;;15.88;14.57;;;;;;;;;;5087855;27;20034;-82
2023/05/07 13:56:24;;;;;;;17.13;15.73;;;;;;;;;;5088673;27;20036;-84
2023/05/07 13:58:50;;;;;;;17.95;16.35;;;;;;;;;;5068306;27;21371;-82
2023/05/07 14:01:16;;;;;;;17.55;16.15;;;;;;;;;;5081928;27;20086;-82
2023/05/07 14:03:43;;;;;;;17.92;16.42;;;;;;;;;;5083339;27;20039;-81
2023/05/07 14:06:09;;;;;;;17.42;16.02;;;;;;;;;;5083929;27;20056;-80
2023/05/07 14:08:35;;;;;;;18.10;16.60;;;;;;;;;;5085126;27;20047;-83
2023/05/07 14:11:01;;;;;;;17.50;16.10;;;;;;;;;;5062833;27;20044;-83
2023/05/07 14:13:27;;;;;;;18.00;16.50;;;;;;;;;;5067973;27;20055;-83
2023/05/07 14:15:53;;;;;;;16.80;15.50;;;;;;;;;;5081121;27;20058;-77
2023/05/07 14:18:19;;;;;;;17.17;15.75;;;;;;;;;;5084301;27;20058;-79
2023/05/07 14:20:49;;;;;;;16.60;15.20;;;;;;;;;;5073412;27;20615;-77
2023/05/07 14:23:17;;;;;;;15.20;13.90;;;;;;;;;;5074972;27;20039;-78
2023/05/07 14:25:45;;;;;;;14.90;13.55;;;;;;;;;;5093716;27;20103;-83
2023/05/07 14:28:11;;;;;;;14.27;13.07;;;;;;;;;;5097784;27;20059;-83
2023/05/07 14:30:38;;;;;;;13.23;12.13;;;;;;;;;;5099457;27;20047;-84
2023/05/07 14:33:04;;;;;;;12.15;11.05;;;;;;;;;;5073655;27;20047;-83
2023/05/07 14:35:33;;;;;;;12.50;11.40;;;;;;;;;;5112406;27;20035;-83
2023/05/07 14:37:59;;;;;;;11.82;10.75;;;;;;;;;;5097754;27;20894;-84